Eendracht — PDVN — position and weather

sailwx.info

Track history (hours):
 
Tides and Currents Weather Stations Pressure Air Temp Water Temp Dewpoint Dewpoint Depression Visibility Wind Speed Wind Dir Waves Ship Positions

Eendracht (Netherlands)

Last reported at 2017-Oct-19 02:51 UTC. Time now 2017-Oct-19 03:26 UTC.
Position N 52°43' E 003°26'.

Length 59 m; beam 12 m; draft 5 m.

Type: Sailing vessel. MMSI: 244543000.

Date/timePositionNaut miles runAvg speedWind from/ knotsBaromVisibWave heightAir tempDewpointWater temp
2017-Oct-19 02:51N 52°43' E 003°26'2 5.3
2017-Oct-19 02:30N 52°42' E 003°24'3 4.4
2017-Oct-19 01:55N 52°42' E 003°20'54 3.8
2017-Oct-18 11:44N 52°02' E 002°19'2 6.4
2017-Oct-18 11:30N 52°01' E 002°18'3 5.9
2017-Oct-18 11:00N 51°58' E 002°17'9 5.2
2017-Oct-18 09:16N 51°49' E 002°13'1 5.2
2017-Oct-18 09:00N 51°48' E 002°13'3 5.4
2017-Oct-18 08:30N 51°45' E 002°12'3 5.8
2017-Oct-18 07:59N 51°42' E 002°11'2 5.1
2017-Oct-18 07:30N 51°40' E 002°10'2 3.9
2017-Oct-18 07:00N 51°38' E 002°11'2 3.5
2017-Oct-18 06:30N 51°36' E 002°12'2 3.0
2017-Oct-18 06:00N 51°35' E 002°13'2 3.1
2017-Oct-18 05:30N 51°33' E 002°14'1 2.5
2017-Oct-18 05:00N 51°32' E 002°14'1 1.9
2017-Oct-18 04:30N 51°31' E 002°15'1 3.0
2017-Oct-18 04:00N 51°30' E 002°16'1 2.8
2017-Oct-18 03:30N 51°28' E 002°16'1 3.0
2017-Oct-18 03:00N 51°27' E 002°15'2 3.5
2017-Oct-18 02:30N 51°26' E 002°13'2 3.9
2017-Oct-18 02:00N 51°24' E 002°12'2 4.0
2017-Oct-18 01:30N 51°22' E 002°11'2 3.9
2017-Oct-18 01:00N 51°20' E 002°09'2 4.9
2017-Oct-18 00:30N 51°18' E 002°08'3 5.5
2017-Oct-18 00:00N 51°15' E 002°07'3 5.6
2017-Oct-17 23:30N 51°14' E 002°03'3 5.6
2017-Oct-17 23:00N 51°12' E 001°60'3 5.4
2017-Oct-17 22:30N 51°10' E 001°56'3 5.7
2017-Oct-17 22:00N 51°09' E 001°52'3 5.6
2017-Oct-17 21:30N 51°07' E 001°49'3 5.6
2017-Oct-17 21:00N 51°06' E 001°45'2 4.9
2017-Oct-17 20:30N 51°04' E 001°42'2 4.1
2017-Oct-17 20:01N 51°03' E 001°40'2 3.4
2017-Oct-17 19:30N 51°01' E 001°38'1 2.7
2017-Oct-17 19:00N 51°00' E 001°36'1 2.3
2017-Oct-17 18:30N 50°59' E 001°35'1 2.1
2017-Oct-17 18:00N 50°58' E 001°35'1 2.0
2017-Oct-17 17:30N 50°58' E 001°34'1 1.9
2017-Oct-17 16:59N 50°57' E 001°33'1 2.1
2017-Oct-17 16:29N 50°56' E 001°33'1 2.4
2017-Oct-17 16:00N 50°55' E 001°33'1 1.8
2017-Oct-17 15:30N 50°54' E 001°32'1 2.2
2017-Oct-17 15:00N 50°53' E 001°32'1 2.9
2017-Oct-17 14:30N 50°51' E 001°31'2 3.5
2017-Oct-17 13:54N 50°49' E 001°30'2 4.9
2017-Oct-17 13:27N 50°47' E 001°30'3 3.3
2017-Oct-17 12:35N 50°45' E 001°33'2 0.1
2017-Oct-16 13:06N 50°44' E 001°36'1 3.5
2017-Oct-16 12:46N 50°44' E 001°34'1 4.1
2017-Oct-16 12:29N 50°45' E 001°32'2 3.8
2017-Oct-16 11:59N 50°45' E 001°29'1 1.4
2017-Oct-16 11:31N 50°45' E 001°30'0 0.8
2017-Oct-16 11:00N 50°45' E 001°30'0 0.9
2017-Oct-16 10:28N 50°45' E 001°29'2 4.7
2017-Oct-16 10:00N 50°44' E 001°26'4 7.2
2017-Oct-16 09:31N 50°42' E 001°21'4 7.3
2017-Oct-16 09:00N 50°40' E 001°16'4 8.3
2017-Oct-16 08:31N 50°37' E 001°12'3 6.4
2017-Oct-16 07:59N 50°36' E 001°07'3 5.4
2017-Oct-16 07:27N 50°34' E 001°03'3 5.6
2017-Oct-16 06:59N 50°34' E 000°59'3 5.9
2017-Oct-16 06:30N 50°33' E 000°55'3 6.1
2017-Oct-16 06:01N 50°32' E 000°50'3 5.7
2017-Oct-16 05:30N 50°31' E 000°46'2 4.1
2017-Oct-16 05:01N 50°30' E 000°43'2 4.8
2017-Oct-16 04:31N 50°29' E 000°40'2 4.0
2017-Oct-16 03:59N 50°29' E 000°36'1 2.6
2017-Oct-16 03:30N 50°29' E 000°34'1 2.1
2017-Oct-16 02:58N 50°29' E 000°33'1 2.8
2017-Oct-16 02:29N 50°29' E 000°31'2 3.6
2017-Oct-16 01:59N 50°29' E 000°28'1 2.9
2017-Oct-16 01:30N 50°29' E 000°26'2 3.7
2017-Oct-16 01:01N 50°30' E 000°23'3 5.4
2017-Oct-16 00:31N 50°31' E 000°19'2 3.5
2017-Oct-16 00:00N 50°31' E 000°22'3 5.7
2017-Oct-15 23:31N 50°32' E 000°26'2 4.6
2017-Oct-15 23:01N 50°33' E 000°30'3 5.0
2017-Oct-15 22:30N 50°34' E 000°33'3 5.5
2017-Oct-15 22:01N 50°35' E 000°37'3 5.5
2017-Oct-15 21:31N 50°36' E 000°41'2 4.2
2017-Oct-15 21:01N 50°37' E 000°44'2 4.2
2017-Oct-15 20:30N 50°38' E 000°47'2 3.7
2017-Oct-15 20:01N 50°39' E 000°49'1 2.6
2017-Oct-15 19:31N 50°39' E 000°51'1 2.4
2017-Oct-15 19:01N 50°39' E 000°53'1 1.9
2017-Oct-15 18:31N 50°39' E 000°55'0 0.4
2017-Oct-15 18:01N 50°39' E 000°54'1 1.5
2017-Oct-15 17:31N 50°39' E 000°53'1 1.5
2017-Oct-15 17:00N 50°39' E 000°52'1 1.2
2017-Oct-15 16:31N 50°38' E 000°52'0 0.9
2017-Oct-15 16:00N 50°38' E 000°52'1 1.4
2017-Oct-15 15:28N 50°37' E 000°52'0 1.0
2017-Oct-15 15:00N 50°37' E 000°53'3 3.4
2017-Oct-15 14:01N 50°40' E 000°51'2 4.4
2017-Oct-15 13:31N 50°42' E 000°50'2 4.9
2017-Oct-15 13:01N 50°45' E 000°48'3 5.0
2017-Oct-15 12:31N 50°47' E 000°47'2 4.2
2017-Oct-15 12:01N 50°49' E 000°46'2 4.1
2017-Oct-15 11:31N 50°48' E 000°49'2 3.4
2017-Oct-15 11:00N 50°48' E 000°52'1 3.0
2017-Oct-15 10:31N 50°47' E 000°54'1 2.7
2017-Oct-15 10:00N 50°47' E 000°56'2 3.7
2017-Oct-15 09:31N 50°48' E 000°59'2 3.5
2017-Oct-15 09:01N 50°48' E 001°01'2 3.5
2017-Oct-15 08:30N 50°49' E 001°04'2 4.7
2017-Oct-15 08:01N 50°50' E 001°07'2 4.3
2017-Oct-15 07:31N 50°51' E 001°10'1 1.9
2017-Oct-15 07:00N 50°52' E 001°11'1 2.6
2017-Oct-15 06:31N 50°53' E 001°12'2 4.4
2017-Oct-15 06:00N 50°54' E 001°15'2 5.0
2017-Oct-15 05:30N 50°56' E 001°18'3 5.7
2017-Oct-15 05:01N 50°58' E 001°21'3 6.6
2017-Oct-15 04:31N 51°00' E 001°25'4 7.4
2017-Oct-15 04:01N 51°03' E 001°29'4 8.0
2017-Oct-15 03:31N 51°06' E 001°33'4 8.2
2017-Oct-15 03:01N 51°09' E 001°38'4 7.9
2017-Oct-15 02:31N 51°11' E 001°42'4 7.3
2017-Oct-15 02:01N 51°14' E 001°46'3 6.7
2017-Oct-15 01:30N 51°17' E 001°49'3 6.1
2017-Oct-15 01:01N 51°20' E 001°51'3 5.9
2017-Oct-15 00:31N 51°22' E 001°54'3 5.6
2017-Oct-15 00:01N 51°24' E 001°57'2 4.6
2017-Oct-14 23:31N 51°25' E 002°01'3 6.0
2017-Oct-14 23:01N 51°24' E 002°05'3 5.8
2017-Oct-14 22:31N 51°23' E 002°09'3 5.6
2017-Oct-14 22:01N 51°22' E 002°14'3 5.4
2017-Oct-14 21:31N 51°21' E 002°18'2 4.7
2017-Oct-14 21:01N 51°21' E 002°21'2 4.7
2017-Oct-14 20:30N 51°22' E 002°25'2 4.9
2017-Oct-14 20:00N 51°23' E 002°29'3 5.2
2017-Oct-14 19:30N 51°23' E 002°33'3 5.4
2017-Oct-14 19:00N 51°23' E 002°37'3 5.4
2017-Oct-14 18:29N 51°24' E 002°42'2 4.7
2017-Oct-14 17:59N 51°23' E 002°45'2 4.0
2017-Oct-14 17:30N 51°21' E 002°47'2 3.4
2017-Oct-14 17:01N 51°20' E 002°49'2 3.3
2017-Oct-14 16:30N 51°19' E 002°50'2 4.0
2017-Oct-14 16:01N 51°17' E 002°52'3 5.3
2017-Oct-14 15:30N 51°15' E 002°54'2 3.6
2017-Oct-14 15:01N 51°14' E 002°56'0 0.5
2017-Oct-14 14:30N 51°13' E 002°56'0 0.1
2017-Oct-14 13:59N 51°13' E 002°56'0 0.0
2017-Oct-14 13:29N 51°13' E 002°56'0 0.0
2017-Oct-14 12:59N 51°13' E 002°56'0 0.0
2017-Oct-14 12:29N 51°13' E 002°56'0 0.0
2017-Oct-14 11:59N 51°13' E 002°56'0 0.0
2017-Oct-14 11:29N 51°13' E 002°56'0 0.0
2017-Oct-14 10:59N 51°13' E 002°56'0 0.0
2017-Oct-14 10:26N 51°13' E 002°56'0 0.0
2017-Oct-14 09:59N 51°13' E 002°56'0 0.0
2017-Oct-14 09:26N 51°13' E 002°56'0 0.0
2017-Oct-14 08:59N 51°13' E 002°56'0 0.0
2017-Oct-14 08:26N 51°13' E 002°56'0 0.0
2017-Oct-14 07:59N 51°13' E 002°56'0 0.0
2017-Oct-14 07:26N 51°13' E 002°56'0 0.0
2017-Oct-14 06:59N 51°13' E 002°56'0 0.0
2017-Oct-14 06:29N 51°13' E 002°56'0 0.0
2017-Oct-14 05:59N 51°13' E 002°56'0 0.0
2017-Oct-14 05:29N 51°13' E 002°56'0 0.0
2017-Oct-14 04:59N 51°13' E 002°56'0 0.0
2017-Oct-14 04:29N 51°13' E 002°56'0 0.0
2017-Oct-14 03:59N 51°13' E 002°56'0 0.0
2017-Oct-14 03:29N 51°13' E 002°56'0 0.0
2017-Oct-14 02:59N 51°13' E 002°56'0 0.0
2017-Oct-14 02:29N 51°13' E 002°56'0 0.0
2017-Oct-14 01:59N 51°13' E 002°56'0 0.0
2017-Oct-14 01:26N 51°13' E 002°56'0 0.0
2017-Oct-14 00:59N 51°13' E 002°56'0 0.0
2017-Oct-14 00:29N 51°13' E 002°56'0 0.0
2017-Oct-13 23:59N 51°13' E 002°56'0 0.0
2017-Oct-13 23:29N 51°13' E 002°56'0 0.0
2017-Oct-13 22:59N 51°13' E 002°56'0 0.0
2017-Oct-13 22:29N 51°13' E 002°56'0 0.0
2017-Oct-13 21:59N 51°13' E 002°56'0 0.0
2017-Oct-13 21:29N 51°13' E 002°56'0 0.0
2017-Oct-13 20:56N 51°13' E 002°56'0 0.0
2017-Oct-13 20:29N 51°13' E 002°56'0 0.0
2017-Oct-13 19:59N 51°13' E 002°56'0 0.0
2017-Oct-13 19:29N 51°13' E 002°56'0 0.0
2017-Oct-13 18:59N 51°13' E 002°56'0 0.0
2017-Oct-13 18:29N 51°13' E 002°56'0 0.0
2017-Oct-13 17:59N 51°13' E 002°56'0 0.0
2017-Oct-13 17:29N 51°13' E 002°56'0 0.0
2017-Oct-13 16:59N 51°13' E 002°56'0 0.0
2017-Oct-13 16:28N 51°13' E 002°56'0 0.0
2017-Oct-13 15:58N 51°13' E 002°56'0 0.0
2017-Oct-13 15:25N 51°13' E 002°56'0 0.0
2017-Oct-13 14:58N 51°13' E 002°56'0 0.0
2017-Oct-13 14:28N 51°13' E 002°56'0 0.0
2017-Oct-13 13:58N 51°13' E 002°56'0 0.0
2017-Oct-13 13:28N 51°13' E 002°56'0 0.0
2017-Oct-13 12:58N 51°13' E 002°56'0 0.0
2017-Oct-13 12:28N 51°13' E 002°56'0 0.0
2017-Oct-13 11:55N 51°13' E 002°56'0 0.0
2017-Oct-13 11:28N 51°13' E 002°56'0 0.0
2017-Oct-13 10:58N 51°13' E 002°56'0 0.0
2017-Oct-13 10:28N 51°13' E 002°56'0 0.0
2017-Oct-13 09:55N 51°13' E 002°56'0 0.0
2017-Oct-13 09:28N 51°13' E 002°56'0 0.0
2017-Oct-13 08:58N 51°13' E 002°56'0 0.0
2017-Oct-13 08:28N 51°13' E 002°56'0 0.0
2017-Oct-13 07:58N 51°13' E 002°56'0 0.0
2017-Oct-13 07:28N 51°13' E 002°56'0 0.0
2017-Oct-13 06:58N 51°13' E 002°56'0 0.0
2017-Oct-13 06:28N 51°13' E 002°56'0 0.0
2017-Oct-13 05:58N 51°13' E 002°56'0 0.0
2017-Oct-13 05:28N 51°13' E 002°56'0 0.0
2017-Oct-13 04:55N 51°13' E 002°56'0 0.0
2017-Oct-13 04:28N 51°13' E 002°56'0 0.0
2017-Oct-13 03:55N 51°13' E 002°56'0 0.0
2017-Oct-13 03:28N 51°13' E 002°56'0 0.0
2017-Oct-13 02:58N 51°13' E 002°56'0 0.0
2017-Oct-13 02:28N 51°13' E 002°56'0 0.0
2017-Oct-13 01:58N 51°13' E 002°56'0 0.0
2017-Oct-13 01:25N 51°13' E 002°56'0 0.0
2017-Oct-13 00:55N 51°13' E 002°56'0 0.0
2017-Oct-13 00:25N 51°13' E 002°56'0 0.0
2017-Oct-12 23:58N 51°13' E 002°56'0 0.0
2017-Oct-12 23:25N 51°13' E 002°56'0 0.0
2017-Oct-12 22:58N 51°13' E 002°56'0 0.0
2017-Oct-12 22:25N 51°13' E 002°56'0 0.0
2017-Oct-12 21:58N 51°13' E 002°56'0 0.0
2017-Oct-12 21:28N 51°13' E 002°56'0 0.0
2017-Oct-12 20:58N 51°13' E 002°56'0 0.0
2017-Oct-12 20:25N 51°13' E 002°56'0 0.0
2017-Oct-12 19:58N 51°13' E 002°56'0 0.0
2017-Oct-12 19:25N 51°13' E 002°56'0 0.0
2017-Oct-12 18:55N 51°13' E 002°56'0 0.0
2017-Oct-12 18:28N 51°13' E 002°56'0 0.0
2017-Oct-12 17:58N 51°13' E 002°56'0 0.0
2017-Oct-12 17:25N 51°13' E 002°56'0 0.3
2017-Oct-12 17:00N 51°13' E 002°56'0 0.3
2017-Oct-12 16:30N 51°14' E 002°56'0 0.8
2017-Oct-12 16:00N 51°14' E 002°56'1 2.3
2017-Oct-12 15:30N 51°15' E 002°55'3 6.4
2017-Oct-12 15:00N 51°18' E 002°52'3 5.4
2017-Oct-12 14:28N 51°19' E 002°48'2 3.3
2017-Oct-12 14:00N 51°20' E 002°48'4 7.0
2017-Oct-12 13:25N 51°24' E 002°44'76 1.8
2017-Oct-10 18:00N 52°39' E 003°05'2 3.1
2017-Oct-10 17:30N 52°37' E 003°05'2 3.2
2017-Oct-10 16:59N 52°35' E 003°06'2 3.9
2017-Oct-10 16:29N 52°33' E 003°07'2 3.4
2017-Oct-10 16:00N 52°32' E 003°08'20 1.5
2017-Oct-10 02:14N 52°17' E 003°30'7 4.4
2017-Oct-10 00:43N 52°24' E 003°33'1 5.1
2017-Oct-10 00:30N 52°25' E 003°34'3 5.0
2017-Oct-09 23:59N 52°27' E 003°35'2 5.2
2017-Oct-09 23:30N 52°29' E 003°36'3 5.4
2017-Oct-09 23:00N 52°32' E 003°37'3 5.4
2017-Oct-09 22:29N 52°35' E 003°38'1 1.1
2017-Oct-09 21:59N 52°35' E 003°39'1 2.1
2017-Oct-09 21:29N 52°34' E 003°40'1 2.2
2017-Oct-09 21:00N 52°33' E 003°40'2 2.9
2017-Oct-09 20:23N 52°31' E 003°40'3 3.9
2017-Oct-09 19:34N 52°28' E 003°42'0 5.3
2017-Oct-09 19:29N 52°28' E 003°43'2 4.5
2017-Oct-09 18:59N 52°26' E 003°45'2 4.6
2017-Oct-09 18:30N 52°24' E 003°47'3 5.1
2017-Oct-09 18:00N 52°22' E 003°49'2 5.1
2017-Oct-09 17:30N 52°20' E 003°51'3 5.5
2017-Oct-09 17:00N 52°17' E 003°53'2 4.5
2017-Oct-09 16:30N 52°15' E 003°55'2 4.1
2017-Oct-09 16:01N 52°13' E 003°56'2 3.5
2017-Oct-09 15:30N 52°12' E 003°55'2 3.9
2017-Oct-09 15:00N 52°10' E 003°55'2 4.0
2017-Oct-09 14:30N 52°08' E 003°55'1 3.0
2017-Oct-09 14:00N 52°06' E 003°55'2 3.0
2017-Oct-09 13:30N 52°05' E 003°56'2 3.3
2017-Oct-09 13:00N 52°03' E 003°57'2 3.5
2017-Oct-09 12:30N 52°02' E 003°60'1 2.8
2017-Oct-09 12:00N 52°01' E 004°01'1 3.0
2017-Oct-09 11:30N 52°00' E 004°03'2 4.3
2017-Oct-09 11:00N 51°59' E 004°06'3 6.0
2017-Oct-09 10:30N 51°57' E 004°10'3 6.4
2017-Oct-09 10:00N 51°55' E 004°14'3 6.0
2017-Oct-09 09:30N 51°54' E 004°18'3 5.8
2017-Oct-09 09:00N 51°54' E 004°23'3 5.9
2017-Oct-09 08:30N 51°54' E 004°27'0 0.4
2017-Oct-09 07:59N 51°54' E 004°28'0 0.0
2017-Oct-09 07:30N 51°54' E 004°28'0 0.0
2017-Oct-09 06:59N 51°54' E 004°28'0 0.0
2017-Oct-09 06:27N 51°54' E 004°28'0 0.0
2017-Oct-09 06:00N 51°54' E 004°28'0 0.0
2017-Oct-09 05:29N 51°54' E 004°28'0 0.0
2017-Oct-09 04:56N 51°54' E 004°28'0 0.0
2017-Oct-09 04:30N 51°54' E 004°28'0 0.0
2017-Oct-09 03:59N 51°54' E 004°28'0 0.0
2017-Oct-09 03:29N 51°54' E 004°28'0 0.0
2017-Oct-09 02:59N 51°54' E 004°28'  
Track history (hours):
 
Tides and Currents Weather Stations Pressure Air Temp Water Temp Dewpoint Dewpoint Depression Visibility Wind Speed Wind Dir Waves Ship Positions

Eendracht (Netherlands)

Last reported at 2017-Oct-19 02:51 UTC. Time now 2017-Oct-19 03:26 UTC.
Position N 52°43' E 003°26'.

Length 59 m; beam 12 m; draft 5 m.

Type: Sailing vessel. MMSI: 244543000.

Date/timePositionNaut miles runAvg speedWind from/ knotsBaromVisibWave heightAir tempDewpointWater temp
2017-Oct-19 02:51N 52°43' E 003°26'2 5.3
2017-Oct-19 02:30N 52°42' E 003°24'3 4.4
2017-Oct-19 01:55N 52°42' E 003°20'54 3.8
2017-Oct-18 11:44N 52°02' E 002°19'2 6.4
2017-Oct-18 11:30N 52°01' E 002°18'3 5.9
2017-Oct-18 11:00N 51°58' E 002°17'9 5.2
2017-Oct-18 09:16N 51°49' E 002°13'1 5.2
2017-Oct-18 09:00N 51°48' E 002°13'3 5.4
2017-Oct-18 08:30N 51°45' E 002°12'3 5.8
2017-Oct-18 07:59N 51°42' E 002°11'2 5.1
2017-Oct-18 07:30N 51°40' E 002°10'2 3.9
2017-Oct-18 07:00N 51°38' E 002°11'2 3.5
2017-Oct-18 06:30N 51°36' E 002°12'2 3.0
2017-Oct-18 06:00N 51°35' E 002°13'2 3.1
2017-Oct-18 05:30N 51°33' E 002°14'1 2.5
2017-Oct-18 05:00N 51°32' E 002°14'1 1.9
2017-Oct-18 04:30N 51°31' E 002°15'1 3.0
2017-Oct-18 04:00N 51°30' E 002°16'1 2.8
2017-Oct-18 03:30N 51°28' E 002°16'1 3.0
2017-Oct-18 03:00N 51°27' E 002°15'2 3.5
2017-Oct-18 02:30N 51°26' E 002°13'2 3.9
2017-Oct-18 02:00N 51°24' E 002°12'2 4.0
2017-Oct-18 01:30N 51°22' E 002°11'2 3.9
2017-Oct-18 01:00N 51°20' E 002°09'2 4.9
2017-Oct-18 00:30N 51°18' E 002°08'3 5.5
2017-Oct-18 00:00N 51°15' E 002°07'3 5.6
2017-Oct-17 23:30N 51°14' E 002°03'3 5.6
2017-Oct-17 23:00N 51°12' E 001°60'3 5.4
2017-Oct-17 22:30N 51°10' E 001°56'3 5.7
2017-Oct-17 22:00N 51°09' E 001°52'3 5.6
2017-Oct-17 21:30N 51°07' E 001°49'3 5.6
2017-Oct-17 21:00N 51°06' E 001°45'2 4.9
2017-Oct-17 20:30N 51°04' E 001°42'2 4.1
2017-Oct-17 20:01N 51°03' E 001°40'2 3.4
2017-Oct-17 19:30N 51°01' E 001°38'1 2.7
2017-Oct-17 19:00N 51°00' E 001°36'1 2.3
2017-Oct-17 18:30N 50°59' E 001°35'1 2.1
2017-Oct-17 18:00N 50°58' E 001°35'1 2.0
2017-Oct-17 17:30N 50°58' E 001°34'1 1.9
2017-Oct-17 16:59N 50°57' E 001°33'1 2.1
2017-Oct-17 16:29N 50°56' E 001°33'1 2.4
2017-Oct-17 16:00N 50°55' E 001°33'1 1.8
2017-Oct-17 15:30N 50°54' E 001°32'1 2.2
2017-Oct-17 15:00N 50°53' E 001°32'1 2.9
2017-Oct-17 14:30N 50°51' E 001°31'2 3.5
2017-Oct-17 13:54N 50°49' E 001°30'2 4.9
2017-Oct-17 13:27N 50°47' E 001°30'3 3.3
2017-Oct-17 12:35N 50°45' E 001°33'2 0.1
2017-Oct-16 13:06N 50°44' E 001°36'1 3.5
2017-Oct-16 12:46N 50°44' E 001°34'1 4.1
2017-Oct-16 12:29N 50°45' E 001°32'2 3.8
2017-Oct-16 11:59N 50°45' E 001°29'1 1.4
2017-Oct-16 11:31N 50°45' E 001°30'0 0.8
2017-Oct-16 11:00N 50°45' E 001°30'0 0.9
2017-Oct-16 10:28N 50°45' E 001°29'2 4.7
2017-Oct-16 10:00N 50°44' E 001°26'4 7.2
2017-Oct-16 09:31N 50°42' E 001°21'4 7.3
2017-Oct-16 09:00N 50°40' E 001°16'4 8.3
2017-Oct-16 08:31N 50°37' E 001°12'3 6.4
2017-Oct-16 07:59N 50°36' E 001°07'3 5.4
2017-Oct-16 07:27N 50°34' E 001°03'3 5.6
2017-Oct-16 06:59N 50°34' E 000°59'3 5.9
2017-Oct-16 06:30N 50°33' E 000°55'3 6.1
2017-Oct-16 06:01N 50°32' E 000°50'3 5.7
2017-Oct-16 05:30N 50°31' E 000°46'2 4.1
2017-Oct-16 05:01N 50°30' E 000°43'2 4.8
2017-Oct-16 04:31N 50°29' E 000°40'2 4.0
2017-Oct-16 03:59N 50°29' E 000°36'1 2.6
2017-Oct-16 03:30N 50°29' E 000°34'1 2.1
2017-Oct-16 02:58N 50°29' E 000°33'1 2.8
2017-Oct-16 02:29N 50°29' E 000°31'2 3.6
2017-Oct-16 01:59N 50°29' E 000°28'1 2.9
2017-Oct-16 01:30N 50°29' E 000°26'2 3.7
2017-Oct-16 01:01N 50°30' E 000°23'3 5.4
2017-Oct-16 00:31N 50°31' E 000°19'2 3.5
2017-Oct-16 00:00N 50°31' E 000°22'3 5.7
2017-Oct-15 23:31N 50°32' E 000°26'2 4.6
2017-Oct-15 23:01N 50°33' E 000°30'3 5.0
2017-Oct-15 22:30N 50°34' E 000°33'3 5.5
2017-Oct-15 22:01N 50°35' E 000°37'3 5.5
2017-Oct-15 21:31N 50°36' E 000°41'2 4.2
2017-Oct-15 21:01N 50°37' E 000°44'2 4.2
2017-Oct-15 20:30N 50°38' E 000°47'2 3.7
2017-Oct-15 20:01N 50°39' E 000°49'1 2.6
2017-Oct-15 19:31N 50°39' E 000°51'1 2.4
2017-Oct-15 19:01N 50°39' E 000°53'1 1.9
2017-Oct-15 18:31N 50°39' E 000°55'0 0.4
2017-Oct-15 18:01N 50°39' E 000°54'1 1.5
2017-Oct-15 17:31N 50°39' E 000°53'1 1.5
2017-Oct-15 17:00N 50°39' E 000°52'1 1.2
2017-Oct-15 16:31N 50°38' E 000°52'0 0.9
2017-Oct-15 16:00N 50°38' E 000°52'1 1.4
2017-Oct-15 15:28N 50°37' E 000°52'0 1.0
2017-Oct-15 15:00N 50°37' E 000°53'3 3.4
2017-Oct-15 14:01N 50°40' E 000°51'2 4.4
2017-Oct-15 13:31N 50°42' E 000°50'2 4.9
2017-Oct-15 13:01N 50°45' E 000°48'3 5.0
2017-Oct-15 12:31N 50°47' E 000°47'2 4.2
2017-Oct-15 12:01N 50°49' E 000°46'2 4.1
2017-Oct-15 11:31N 50°48' E 000°49'2 3.4
2017-Oct-15 11:00N 50°48' E 000°52'1 3.0
2017-Oct-15 10:31N 50°47' E 000°54'1 2.7
2017-Oct-15 10:00N 50°47' E 000°56'2 3.7
2017-Oct-15 09:31N 50°48' E 000°59'2 3.5
2017-Oct-15 09:01N 50°48' E 001°01'2 3.5
2017-Oct-15 08:30N 50°49' E 001°04'2 4.7
2017-Oct-15 08:01N 50°50' E 001°07'2 4.3
2017-Oct-15 07:31N 50°51' E 001°10'1 1.9
2017-Oct-15 07:00N 50°52' E 001°11'1 2.6
2017-Oct-15 06:31N 50°53' E 001°12'2 4.4
2017-Oct-15 06:00N 50°54' E 001°15'2 5.0
2017-Oct-15 05:30N 50°56' E 001°18'3 5.7
2017-Oct-15 05:01N 50°58' E 001°21'3 6.6
2017-Oct-15 04:31N 51°00' E 001°25'4 7.4
2017-Oct-15 04:01N 51°03' E 001°29'4 8.0
2017-Oct-15 03:31N 51°06' E 001°33'4 8.2
2017-Oct-15 03:01N 51°09' E 001°38'4 7.9
2017-Oct-15 02:31N 51°11' E 001°42'4 7.3
2017-Oct-15 02:01N 51°14' E 001°46'3 6.7
2017-Oct-15 01:30N 51°17' E 001°49'3 6.1
2017-Oct-15 01:01N 51°20' E 001°51'3 5.9
2017-Oct-15 00:31N 51°22' E 001°54'3 5.6
2017-Oct-15 00:01N 51°24' E 001°57'2 4.6
2017-Oct-14 23:31N 51°25' E 002°01'3 6.0
2017-Oct-14 23:01N 51°24' E 002°05'3 5.8
2017-Oct-14 22:31N 51°23' E 002°09'3 5.6
2017-Oct-14 22:01N 51°22' E 002°14'3 5.4
2017-Oct-14 21:31N 51°21' E 002°18'2 4.7
2017-Oct-14 21:01N 51°21' E 002°21'2 4.7
2017-Oct-14 20:30N 51°22' E 002°25'2 4.9
2017-Oct-14 20:00N 51°23' E 002°29'3 5.2
2017-Oct-14 19:30N 51°23' E 002°33'3 5.4
2017-Oct-14 19:00N 51°23' E 002°37'3 5.4
2017-Oct-14 18:29N 51°24' E 002°42'2 4.7
2017-Oct-14 17:59N 51°23' E 002°45'2 4.0
2017-Oct-14 17:30N 51°21' E 002°47'2 3.4
2017-Oct-14 17:01N 51°20' E 002°49'2 3.3
2017-Oct-14 16:30N 51°19' E 002°50'2 4.0
2017-Oct-14 16:01N 51°17' E 002°52'3 5.3
2017-Oct-14 15:30N 51°15' E 002°54'2 3.6
2017-Oct-14 15:01N 51°14' E 002°56'0 0.5
2017-Oct-14 14:30N 51°13' E 002°56'0 0.1
2017-Oct-14 13:59N 51°13' E 002°56'0 0.0
2017-Oct-14 13:29N 51°13' E 002°56'0 0.0
2017-Oct-14 12:59N 51°13' E 002°56'0 0.0
2017-Oct-14 12:29N 51°13' E 002°56'0 0.0
2017-Oct-14 11:59N 51°13' E 002°56'0 0.0
2017-Oct-14 11:29N 51°13' E 002°56'0 0.0
2017-Oct-14 10:59N 51°13' E 002°56'0 0.0
2017-Oct-14 10:26N 51°13' E 002°56'0 0.0
2017-Oct-14 09:59N 51°13' E 002°56'0 0.0
2017-Oct-14 09:26N 51°13' E 002°56'0 0.0
2017-Oct-14 08:59N 51°13' E 002°56'0 0.0
2017-Oct-14 08:26N 51°13' E 002°56'0 0.0
2017-Oct-14 07:59N 51°13' E 002°56'0 0.0
2017-Oct-14 07:26N 51°13' E 002°56'0 0.0
2017-Oct-14 06:59N 51°13' E 002°56'0 0.0
2017-Oct-14 06:29N 51°13' E 002°56'0 0.0
2017-Oct-14 05:59N 51°13' E 002°56'0 0.0
2017-Oct-14 05:29N 51°13' E 002°56'0 0.0
2017-Oct-14 04:59N 51°13' E 002°56'0 0.0
2017-Oct-14 04:29N 51°13' E 002°56'0 0.0
2017-Oct-14 03:59N 51°13' E 002°56'0 0.0
2017-Oct-14 03:29N 51°13' E 002°56'0 0.0
2017-Oct-14 02:59N 51°13' E 002°56'0 0.0
2017-Oct-14 02:29N 51°13' E 002°56'0 0.0
2017-Oct-14 01:59N 51°13' E 002°56'0 0.0
2017-Oct-14 01:26N 51°13' E 002°56'0 0.0
2017-Oct-14 00:59N 51°13' E 002°56'0 0.0
2017-Oct-14 00:29N 51°13' E 002°56'0 0.0
2017-Oct-13 23:59N 51°13' E 002°56'0 0.0
2017-Oct-13 23:29N 51°13' E 002°56'0 0.0
2017-Oct-13 22:59N 51°13' E 002°56'0 0.0
2017-Oct-13 22:29N 51°13' E 002°56'0 0.0
2017-Oct-13 21:59N 51°13' E 002°56'0 0.0
2017-Oct-13 21:29N 51°13' E 002°56'0 0.0
2017-Oct-13 20:56N 51°13' E 002°56'0 0.0
2017-Oct-13 20:29N 51°13' E 002°56'0 0.0
2017-Oct-13 19:59N 51°13' E 002°56'0 0.0
2017-Oct-13 19:29N 51°13' E 002°56'0 0.0
2017-Oct-13 18:59N 51°13' E 002°56'0 0.0
2017-Oct-13 18:29N 51°13' E 002°56'0 0.0
2017-Oct-13 17:59N 51°13' E 002°56'0 0.0
2017-Oct-13 17:29N 51°13' E 002°56'0 0.0
2017-Oct-13 16:59N 51°13' E 002°56'0 0.0
2017-Oct-13 16:28N 51°13' E 002°56'0 0.0
2017-Oct-13 15:58N 51°13' E 002°56'0 0.0
2017-Oct-13 15:25N 51°13' E 002°56'0 0.0
2017-Oct-13 14:58N 51°13' E 002°56'0 0.0
2017-Oct-13 14:28N 51°13' E 002°56'0 0.0
2017-Oct-13 13:58N 51°13' E 002°56'0 0.0
2017-Oct-13 13:28N 51°13' E 002°56'0 0.0
2017-Oct-13 12:58N 51°13' E 002°56'0 0.0
2017-Oct-13 12:28N 51°13' E 002°56'0 0.0
2017-Oct-13 11:55N 51°13' E 002°56'0 0.0
2017-Oct-13 11:28N 51°13' E 002°56'0 0.0
2017-Oct-13 10:58N 51°13' E 002°56'0 0.0
2017-Oct-13 10:28N 51°13' E 002°56'0 0.0
2017-Oct-13 09:55N 51°13' E 002°56'0 0.0
2017-Oct-13 09:28N 51°13' E 002°56'0 0.0
2017-Oct-13 08:58N 51°13' E 002°56'0 0.0
2017-Oct-13 08:28N 51°13' E 002°56'0 0.0
2017-Oct-13 07:58N 51°13' E 002°56'0 0.0
2017-Oct-13 07:28N 51°13' E 002°56'0 0.0
2017-Oct-13 06:58N 51°13' E 002°56'0 0.0
2017-Oct-13 06:28N 51°13' E 002°56'0 0.0
2017-Oct-13 05:58N 51°13' E 002°56'0 0.0
2017-Oct-13 05:28N 51°13' E 002°56'0 0.0
2017-Oct-13 04:55N 51°13' E 002°56'0 0.0
2017-Oct-13 04:28N 51°13' E 002°56'0 0.0
2017-Oct-13 03:55N 51°13' E 002°56'0 0.0
2017-Oct-13 03:28N 51°13' E 002°56'0 0.0
2017-Oct-13 02:58N 51°13' E 002°56'0 0.0
2017-Oct-13 02:28N 51°13' E 002°56'0 0.0
2017-Oct-13 01:58N 51°13' E 002°56'0 0.0
2017-Oct-13 01:25N 51°13' E 002°56'0 0.0
2017-Oct-13 00:55N 51°13' E 002°56'0 0.0
2017-Oct-13 00:25N 51°13' E 002°56'0 0.0
2017-Oct-12 23:58N 51°13' E 002°56'0 0.0
2017-Oct-12 23:25N 51°13' E 002°56'0 0.0
2017-Oct-12 22:58N 51°13' E 002°56'0 0.0
2017-Oct-12 22:25N 51°13' E 002°56'0 0.0
2017-Oct-12 21:58N 51°13' E 002°56'0 0.0
2017-Oct-12 21:28N 51°13' E 002°56'0 0.0
2017-Oct-12 20:58N 51°13' E 002°56'0 0.0
2017-Oct-12 20:25N 51°13' E 002°56'0 0.0
2017-Oct-12 19:58N 51°13' E 002°56'0 0.0
2017-Oct-12 19:25N 51°13' E 002°56'0 0.0
2017-Oct-12 18:55N 51°13' E 002°56'0 0.0
2017-Oct-12 18:28N 51°13' E 002°56'0 0.0
2017-Oct-12 17:58N 51°13' E 002°56'0 0.0
2017-Oct-12 17:25N 51°13' E 002°56'0 0.3
2017-Oct-12 17:00N 51°13' E 002°56'0 0.3
2017-Oct-12 16:30N 51°14' E 002°56'0 0.8
2017-Oct-12 16:00N 51°14' E 002°56'1 2.3
2017-Oct-12 15:30N 51°15' E 002°55'3 6.4
2017-Oct-12 15:00N 51°18' E 002°52'3 5.4
2017-Oct-12 14:28N 51°19' E 002°48'2 3.3
2017-Oct-12 14:00N 51°20' E 002°48'4 7.0
2017-Oct-12 13:25N 51°24' E 002°44'76 1.8
2017-Oct-10 18:00N 52°39' E 003°05'2 3.1
2017-Oct-10 17:30N 52°37' E 003°05'2 3.2
2017-Oct-10 16:59N 52°35' E 003°06'2 3.9
2017-Oct-10 16:29N 52°33' E 003°07'2 3.4
2017-Oct-10 16:00N 52°32' E 003°08'20 1.5
2017-Oct-10 02:14N 52°17' E 003°30'7 4.4
2017-Oct-10 00:43N 52°24' E 003°33'1 5.1
2017-Oct-10 00:30N 52°25' E 003°34'3 5.0
2017-Oct-09 23:59N 52°27' E 003°35'2 5.2
2017-Oct-09 23:30N 52°29' E 003°36'3 5.4
2017-Oct-09 23:00N 52°32' E 003°37'3 5.4
2017-Oct-09 22:29N 52°35' E 003°38'1 1.1
2017-Oct-09 21:59N 52°35' E 003°39'1 2.1
2017-Oct-09 21:29N 52°34' E 003°40'1 2.2
2017-Oct-09 21:00N 52°33' E 003°40'2 2.9
2017-Oct-09 20:23N 52°31' E 003°40'3 3.9
2017-Oct-09 19:34N 52°28' E 003°42'0 5.3
2017-Oct-09 19:29N 52°28' E 003°43'2 4.5
2017-Oct-09 18:59N 52°26' E 003°45'2 4.6
2017-Oct-09 18:30N 52°24' E 003°47'3 5.1
2017-Oct-09 18:00N 52°22' E 003°49'2 5.1
2017-Oct-09 17:30N 52°20' E 003°51'3 5.5
2017-Oct-09 17:00N 52°17' E 003°53'2 4.5
2017-Oct-09 16:30N 52°15' E 003°55'2 4.1
2017-Oct-09 16:01N 52°13' E 003°56'2 3.5
2017-Oct-09 15:30N 52°12' E 003°55'2 3.9
2017-Oct-09 15:00N 52°10' E 003°55'2 4.0
2017-Oct-09 14:30N 52°08' E 003°55'1 3.0
2017-Oct-09 14:00N 52°06' E 003°55'2 3.0
2017-Oct-09 13:30N 52°05' E 003°56'2 3.3
2017-Oct-09 13:00N 52°03' E 003°57'2 3.5
2017-Oct-09 12:30N 52°02' E 003°60'1 2.8
2017-Oct-09 12:00N 52°01' E 004°01'1 3.0
2017-Oct-09 11:30N 52°00' E 004°03'2 4.3
2017-Oct-09 11:00N 51°59' E 004°06'3 6.0
2017-Oct-09 10:30N 51°57' E 004°10'3 6.4
2017-Oct-09 10:00N 51°55' E 004°14'3 6.0
2017-Oct-09 09:30N 51°54' E 004°18'3 5.8
2017-Oct-09 09:00N 51°54' E 004°23'3 5.9
2017-Oct-09 08:30N 51°54' E 004°27'0 0.4
2017-Oct-09 07:59N 51°54' E 004°28'0 0.0
2017-Oct-09 07:30N 51°54' E 004°28'0 0.0
2017-Oct-09 06:59N 51°54' E 004°28'0 0.0
2017-Oct-09 06:27N 51°54' E 004°28'0 0.0
2017-Oct-09 06:00N 51°54' E 004°28'0 0.0
2017-Oct-09 05:29N 51°54' E 004°28'0 0.0
2017-Oct-09 04:56N 51°54' E 004°28'0 0.0
2017-Oct-09 04:30N 51°54' E 004°28'0 0.0
2017-Oct-09 03:59N 51°54' E 004°28'0 0.0
2017-Oct-09 03:29N 51°54' E 004°28'0 0.0
2017-Oct-09 02:59N 51°54' E 004°28'  

Dump ship's entire track history